Robyn J — WTQ4065 — position and weather

sailwx.info

Track history (hours):
 
Tides and Currents Weather Stations Pressure Air Temp Water Temp Dewpoint Dewpoint Depression Visibility Wind Speed Wind Dir Waves Ship Positions

Robyn J

Owner: JANKOVICH, TOM J, SAN PEDRO, CA. More information available from US FCC via Universal Licensing System and Coast Guard Vessel Documentation Center.

Last reported at 2018-Jun-24 14:00 UTC. Time now 2018-Jun-24 14:12 UTC.
Position N 33°44' W 118°17'.

Length 36 m; draft 3 m.

Type: Tow > 200 m length. MMSI: 367006770.

Date/timePositionNaut miles runAvg speedWind from/ knotsBaromVisibWave heightAir tempDewpointWater temp
2018-Jun-24 14:00N 33°44' W 118°17'0 0.0
2018-Jun-24 13:30N 33°44' W 118°17'0 0.0
2018-Jun-24 13:00N 33°44' W 118°17'0 0.0
2018-Jun-24 12:30N 33°44' W 118°17'0 0.0
2018-Jun-24 12:00N 33°44' W 118°17'0 0.0
2018-Jun-24 11:30N 33°44' W 118°17'0 0.0
2018-Jun-24 11:00N 33°44' W 118°17'0 0.0
2018-Jun-24 10:30N 33°44' W 118°17'0 0.0
2018-Jun-24 10:00N 33°44' W 118°17'0 0.0
2018-Jun-24 09:30N 33°44' W 118°17'0 0.0
2018-Jun-24 09:00N 33°44' W 118°17'0 0.0
2018-Jun-24 08:30N 33°44' W 118°17'0 0.0
2018-Jun-24 08:00N 33°44' W 118°17'0 0.0
2018-Jun-24 07:30N 33°44' W 118°17'0 0.0
2018-Jun-24 07:00N 33°44' W 118°17'0 0.0
2018-Jun-24 06:29N 33°44' W 118°17'0 0.0
2018-Jun-24 06:00N 33°44' W 118°17'0 0.0
2018-Jun-24 05:30N 33°44' W 118°17'0 0.0
2018-Jun-24 05:00N 33°44' W 118°17'0 0.2
2018-Jun-24 04:30N 33°44' W 118°16'2 3.2
2018-Jun-24 04:00N 33°45' W 118°16'0 0.0
2018-Jun-24 03:30N 33°45' W 118°16'0 0.0
2018-Jun-24 03:00N 33°45' W 118°16'0 0.0
2018-Jun-24 02:30N 33°45' W 118°16'0 0.0
2018-Jun-24 02:00N 33°45' W 118°16'0 0.0
2018-Jun-24 01:30N 33°45' W 118°16'0 0.0
2018-Jun-24 01:00N 33°45' W 118°16'0 0.0
2018-Jun-24 00:30N 33°45' W 118°16'0 0.0
2018-Jun-24 00:00N 33°45' W 118°16'2 3.3
2018-Jun-23 23:30N 33°44' W 118°16'2 3.4
2018-Jun-23 23:00N 33°43' W 118°15'2 3.9
2018-Jun-23 22:30N 33°44' W 118°13'0 0.0
2018-Jun-23 22:00N 33°44' W 118°13'0 0.0
2018-Jun-23 21:30N 33°44' W 118°13'0 0.0
2018-Jun-23 21:00N 33°44' W 118°13'0 0.0
2018-Jun-23 20:30N 33°44' W 118°13'0 0.0
2018-Jun-23 20:00N 33°44' W 118°13'0 0.0
2018-Jun-23 19:30N 33°44' W 118°13'0 0.0
2018-Jun-23 19:00N 33°44' W 118°13'2 3.3
2018-Jun-23 18:30N 33°44' W 118°11'1 2.5
2018-Jun-23 18:00N 33°45' W 118°11'0 0.1
2018-Jun-23 17:30N 33°45' W 118°11'0 0.1
2018-Jun-23 17:00N 33°45' W 118°11'0 0.0
2018-Jun-23 16:30N 33°45' W 118°11'0 0.0
2018-Jun-23 16:00N 33°45' W 118°11'0 0.0
2018-Jun-23 15:30N 33°45' W 118°11'0 0.0
2018-Jun-23 15:00N 33°45' W 118°11'0 0.0
2018-Jun-23 14:30N 33°45' W 118°11'0 0.4
2018-Jun-23 13:56N 33°45' W 118°11'1 1.4
2018-Jun-23 13:30N 33°44' W 118°11'3 5.1
2018-Jun-23 13:00N 33°43' W 118°13'3 5.0
2018-Jun-23 12:30N 33°44' W 118°17'0 0.0
2018-Jun-23 12:00N 33°44' W 118°17'0 0.0
2018-Jun-23 11:30N 33°44' W 118°17'0 0.0
2018-Jun-23 11:00N 33°44' W 118°17'0 0.0
2018-Jun-23 10:30N 33°44' W 118°17'0 0.0
2018-Jun-23 10:00N 33°44' W 118°17'0 0.0
2018-Jun-23 09:30N 33°44' W 118°17'0 0.0
2018-Jun-23 09:00N 33°44' W 118°17'0 0.0
2018-Jun-23 08:29N 33°44' W 118°17'0 0.0
2018-Jun-23 08:00N 33°44' W 118°17'0 0.0
2018-Jun-23 07:30N 33°44' W 118°17'0 0.0
2018-Jun-23 07:00N 33°44' W 118°17'0 0.0
2018-Jun-23 06:27N 33°44' W 118°17'0 0.0
2018-Jun-23 06:00N 33°44' W 118°17'0 0.0
2018-Jun-23 05:30N 33°44' W 118°17'0 0.0
2018-Jun-23 05:00N 33°44' W 118°17'0 0.0
2018-Jun-23 04:30N 33°44' W 118°17'0 0.0
2018-Jun-23 03:59N 33°44' W 118°17'0 0.0
2018-Jun-23 03:30N 33°44' W 118°17'0 0.0
2018-Jun-23 03:00N 33°44' W 118°17'0 0.0
2018-Jun-23 02:30N 33°44' W 118°17'0 0.0
2018-Jun-23 01:59N 33°44' W 118°17'0 0.0
2018-Jun-23 01:27N 33°44' W 118°17'0 0.0
2018-Jun-23 01:00N 33°44' W 118°17'2 4.8
2018-Jun-23 00:30N 33°43' W 118°14'1 2.4
2018-Jun-23 00:00N 33°44' W 118°13'0 0.1
2018-Jun-22 23:30N 33°44' W 118°13'0 0.1
2018-Jun-22 23:00N 33°44' W 118°13'0 0.0
2018-Jun-22 22:30N 33°44' W 118°13'0 0.1
2018-Jun-22 22:00N 33°44' W 118°13'0 0.1
2018-Jun-22 21:30N 33°44' W 118°13'0 0.1
2018-Jun-22 21:00N 33°44' W 118°13'0 0.0
2018-Jun-22 20:30N 33°44' W 118°13'0 0.2
2018-Jun-22 20:00N 33°44' W 118°13'0 0.7
2018-Jun-22 19:29N 33°44' W 118°13'2 5.1
2018-Jun-22 19:00N 33°43' W 118°16'0 0.9
2018-Jun-22 18:30N 33°44' W 118°17'0 0.0
2018-Jun-22 18:00N 33°44' W 118°17'0 0.1
2018-Jun-22 17:30N 33°44' W 118°17'0 0.0
2018-Jun-22 17:00N 33°44' W 118°17'0 0.0
2018-Jun-22 16:30N 33°44' W 118°17'0 0.0
2018-Jun-22 16:00N 33°44' W 118°17'0 0.0
2018-Jun-22 15:30N 33°44' W 118°17'0 0.0
2018-Jun-22 15:00N 33°44' W 118°17'0 0.0
2018-Jun-22 14:30N 33°44' W 118°17'0 0.0
2018-Jun-22 14:00N 33°44' W 118°17'0 0.0
2018-Jun-22 13:30N 33°44' W 118°17'0 0.0
2018-Jun-22 13:00N 33°44' W 118°17'0 0.0
2018-Jun-22 12:30N 33°44' W 118°17'0 0.0
2018-Jun-22 12:00N 33°44' W 118°17'0 0.0
2018-Jun-22 11:29N 33°44' W 118°17'0 0.0
2018-Jun-22 11:00N 33°44' W 118°17'0 0.0
2018-Jun-22 10:30N 33°44' W 118°17'0 0.0
2018-Jun-22 10:00N 33°44' W 118°17'0 0.0
2018-Jun-22 09:30N 33°44' W 118°17'0 0.0
2018-Jun-22 08:59N 33°44' W 118°17'0 0.0
2018-Jun-22 08:30N 33°44' W 118°17'0 0.0
2018-Jun-22 08:00N 33°44' W 118°17'0 0.0
2018-Jun-22 07:30N 33°44' W 118°17'0 0.0
2018-Jun-22 07:00N 33°44' W 118°17'0 0.0
2018-Jun-22 06:29N 33°44' W 118°17'0 0.0
2018-Jun-22 06:00N 33°44' W 118°17'0 0.0
2018-Jun-22 05:30N 33°44' W 118°17'0 0.0
2018-Jun-22 05:00N 33°44' W 118°17'0 0.0
2018-Jun-22 04:29N 33°44' W 118°17'0 0.0
2018-Jun-22 04:00N 33°44' W 118°17'0 0.0
2018-Jun-22 03:30N 33°44' W 118°17'0 0.0
2018-Jun-22 03:00N 33°44' W 118°17'0 0.0
2018-Jun-22 02:30N 33°44' W 118°17'0 0.0
2018-Jun-22 02:00N 33°44' W 118°17'0 0.0
2018-Jun-22 01:30N 33°44' W 118°17'0 0.0
2018-Jun-22 01:00N 33°44' W 118°17'0 0.0
2018-Jun-22 00:30N 33°44' W 118°17'0 0.0
2018-Jun-22 00:00N 33°44' W 118°17'0 0.0
2018-Jun-21 23:30N 33°44' W 118°17'0 0.0
2018-Jun-21 23:00N 33°44' W 118°17'2 3.8
2018-Jun-21 22:30N 33°43' W 118°14'1 2.8
2018-Jun-21 22:00N 33°44' W 118°13'0 0.0
2018-Jun-21 21:30N 33°44' W 118°13'0 0.0
2018-Jun-21 21:00N 33°44' W 118°13'0 0.1
2018-Jun-21 20:30N 33°44' W 118°13'0 0.1
2018-Jun-21 20:00N 33°44' W 118°13'0 0.1
2018-Jun-21 19:30N 33°44' W 118°13'1 2.6
2018-Jun-21 19:00N 33°43' W 118°14'2 3.8
2018-Jun-21 18:30N 33°44' W 118°17'0 0.1
2018-Jun-21 18:00N 33°44' W 118°17'0 0.0
2018-Jun-21 17:30N 33°44' W 118°17'0 0.0
2018-Jun-21 17:00N 33°44' W 118°17'0 0.0
2018-Jun-21 16:30N 33°44' W 118°17'0 0.0
2018-Jun-21 16:00N 33°44' W 118°17'0 0.0
2018-Jun-21 15:30N 33°44' W 118°17'0 0.0
2018-Jun-21 15:00N 33°44' W 118°17'0 0.0
2018-Jun-21 14:30N 33°44' W 118°17'0 0.0
2018-Jun-21 14:00N 33°44' W 118°17'0 0.0
2018-Jun-21 13:30N 33°44' W 118°17'0 0.0
2018-Jun-21 13:00N 33°44' W 118°17'0 0.0
2018-Jun-21 12:30N 33°44' W 118°17'0 0.0
2018-Jun-21 12:00N 33°44' W 118°17'0 0.0
2018-Jun-21 11:30N 33°44' W 118°17'0 0.0
2018-Jun-21 11:00N 33°44' W 118°17'0 0.0
2018-Jun-21 10:30N 33°44' W 118°17'0 0.0
2018-Jun-21 09:59N 33°44' W 118°17'0 0.0
2018-Jun-21 09:30N 33°44' W 118°17'0 0.0
2018-Jun-21 09:00N 33°44' W 118°17'0 0.0
2018-Jun-21 08:28N 33°44' W 118°17'0 0.0
2018-Jun-21 08:00N 33°44' W 118°17'0 0.0
2018-Jun-21 07:28N 33°44' W 118°17'0 0.0
2018-Jun-21 07:00N 33°44' W 118°17'0 0.0
2018-Jun-21 06:30N 33°44' W 118°17'0 0.0
2018-Jun-21 05:59N 33°44' W 118°17'0 0.0
2018-Jun-21 05:30N 33°44' W 118°17'0 0.0
2018-Jun-21 05:00N 33°44' W 118°17'0 0.0
2018-Jun-21 04:30N 33°44' W 118°17'0 0.0
2018-Jun-21 04:00N 33°44' W 118°17'0 0.0
2018-Jun-21 03:30N 33°44' W 118°17'0 0.0
2018-Jun-21 03:00N 33°44' W 118°17'0 0.0
2018-Jun-21 02:28N 33°44' W 118°17'0 0.0
2018-Jun-21 02:00N 33°44' W 118°17'0 0.0
2018-Jun-21 01:30N 33°44' W 118°17'0 0.0
2018-Jun-21 01:00N 33°44' W 118°17'0 0.0
2018-Jun-21 00:30N 33°44' W 118°17'0 0.0
2018-Jun-21 00:00N 33°44' W 118°17'0 0.0
2018-Jun-20 23:30N 33°44' W 118°17'0 0.1
2018-Jun-20 23:00N 33°44' W 118°16'0 0.0
2018-Jun-20 22:30N 33°44' W 118°16'0 0.0
2018-Jun-20 22:00N 33°44' W 118°16'0 0.0
2018-Jun-20 21:30N 33°44' W 118°16'0 0.0
2018-Jun-20 21:00N 33°44' W 118°16'0 0.0
2018-Jun-20 20:30N 33°44' W 118°16'0 0.1
2018-Jun-20 20:00N 33°44' W 118°17'0 0.0
2018-Jun-20 19:30N 33°44' W 118°17'0 0.0
2018-Jun-20 19:00N 33°44' W 118°17'0 0.0
2018-Jun-20 18:30N 33°44' W 118°17'0 0.0
2018-Jun-20 18:00N 33°44' W 118°17'0 0.0
2018-Jun-20 17:30N 33°44' W 118°17'0 0.0
2018-Jun-20 17:00N 33°44' W 118°17'0 0.0
2018-Jun-20 16:29N 33°44' W 118°17'0 0.0
2018-Jun-20 15:59N 33°44' W 118°17'0 0.0
2018-Jun-20 15:30N 33°44' W 118°17'0 0.5
2018-Jun-20 15:00N 33°44' W 118°17'1 2.7
2018-Jun-20 14:30N 33°45' W 118°16'0 0.0
2018-Jun-20 13:59N 33°45' W 118°16'0 0.1
2018-Jun-20 13:30N 33°45' W 118°16'0 0.1
2018-Jun-20 13:00N 33°45' W 118°16'0 0.0
2018-Jun-20 12:30N 33°45' W 118°16'0 0.0
2018-Jun-20 12:00N 33°45' W 118°16'0 0.0
2018-Jun-20 11:30N 33°45' W 118°16'0 0.0
2018-Jun-20 11:00N 33°45' W 118°16'0 0.0
2018-Jun-20 10:30N 33°45' W 118°16'0 0.0
2018-Jun-20 10:00N 33°45' W 118°16'0 0.1
2018-Jun-20 09:30N 33°45' W 118°16'0 0.0
2018-Jun-20 09:00N 33°45' W 118°16'2 3.0
2018-Jun-20 08:29N 33°44' W 118°17'0 0.0
2018-Jun-20 08:00N 33°44' W 118°17'0 0.0
2018-Jun-20 07:28N 33°44' W 118°17'0 0.0
2018-Jun-20 07:00N 33°44' W 118°17'0 0.0
2018-Jun-20 06:30N 33°44' W 118°17'0 0.0
2018-Jun-20 06:00N 33°44' W 118°17'1 1.9
2018-Jun-20 05:30N 33°43' W 118°16'3 5.1
2018-Jun-20 05:00N 33°41' W 118°14'4 7.8
2018-Jun-20 04:30N 33°37' W 118°15'4 7.5
2018-Jun-20 03:59N 33°33' W 118°15'1 0.1
2018-Jun-19 06:01N 33°32' W 118°15'0 7.3
2018-Jun-19 06:00N 33°32' W 118°15'4 7.4
2018-Jun-19 05:30N 33°36' W 118°15'4 7.5
2018-Jun-19 05:00N 33°39' W 118°15'3 6.8
2018-Jun-19 04:30N 33°43' W 118°15'1 2.5
2018-Jun-19 04:00N 33°44' W 118°17'0 0.0
2018-Jun-19 03:30N 33°44' W 118°17'0 0.0
2018-Jun-19 03:00N 33°44' W 118°17'0 0.0
2018-Jun-19 02:30N 33°44' W 118°17'0 0.0
2018-Jun-19 02:00N 33°44' W 118°17'0 0.0
2018-Jun-19 01:30N 33°44' W 118°17'0 0.0
2018-Jun-19 01:00N 33°44' W 118°17'0 0.0
2018-Jun-19 00:30N 33°44' W 118°17'0 0.0
2018-Jun-19 00:00N 33°44' W 118°17'0 0.0
2018-Jun-18 23:30N 33°44' W 118°17'0 0.0
2018-Jun-18 23:00N 33°44' W 118°17'0 0.0
2018-Jun-18 22:30N 33°44' W 118°17'0 0.0
2018-Jun-18 22:00N 33°44' W 118°17'0 0.0
2018-Jun-18 21:30N 33°44' W 118°17'0 0.0
2018-Jun-18 21:00N 33°44' W 118°17'0 0.0
2018-Jun-18 20:30N 33°44' W 118°17'0 0.0
2018-Jun-18 20:00N 33°44' W 118°17'0 0.0
2018-Jun-18 19:30N 33°44' W 118°17'0 0.0
2018-Jun-18 19:00N 33°44' W 118°17'0 0.0
2018-Jun-18 18:30N 33°44' W 118°17'0 0.0
2018-Jun-18 18:00N 33°44' W 118°17'0 0.0
2018-Jun-18 17:30N 33°44' W 118°17'0 0.0
2018-Jun-18 17:00N 33°44' W 118°17'0 0.0
2018-Jun-18 16:30N 33°44' W 118°17'0 0.0
2018-Jun-18 16:00N 33°44' W 118°17'0 0.0
2018-Jun-18 15:29N 33°44' W 118°17'0 0.0
2018-Jun-18 15:00N 33°44' W 118°17'0 0.0
2018-Jun-18 14:30N 33°44' W 118°17'0 0.0
2018-Jun-18 14:00N 33°44' W 118°17'0 0.0
2018-Jun-18 13:30N 33°44' W 118°17'0 0.0
2018-Jun-18 13:00N 33°44' W 118°17'0 0.0
2018-Jun-18 12:30N 33°44' W 118°17'0 0.0
2018-Jun-18 12:00N 33°44' W 118°17'0 0.0
2018-Jun-18 11:30N 33°44' W 118°17'0 0.0
2018-Jun-18 10:59N 33°44' W 118°17'0 0.0
2018-Jun-18 10:30N 33°44' W 118°17'2 3.2
2018-Jun-18 10:00N 33°43' W 118°15'4 7.1
2018-Jun-18 09:30N 33°40' W 118°12'4 7.5
2018-Jun-18 09:00N 33°37' W 118°09'4 7.6
2018-Jun-18 08:30N 33°34' W 118°06'27 7.7
2018-Jun-18 04:58N 33°13' W 117°46'4 7.5
2018-Jun-18 04:30N 33°10' W 117°44'4 7.4
2018-Jun-18 04:00N 33°07' W 117°41'4 7.3
2018-Jun-18 03:30N 33°04' W 117°39'4 7.3
2018-Jun-18 03:00N 33°01' W 117°36'4 7.3
2018-Jun-18 02:30N 32°58' W 117°34'4 7.2
2018-Jun-18 02:00N 32°55' W 117°31'4 7.2
2018-Jun-18 01:30N 32°52' W 117°29'4 7.1
2018-Jun-18 01:00N 32°49' W 117°26'4 7.3
2018-Jun-18 00:30N 32°47' W 117°23'  
2018-Jun-15 10:37N 32°42' W 117°20'1 6.3
2018-Jun-15 10:30N 32°43' W 117°21'3 6.2
2018-Jun-15 10:00N 32°45' W 117°23'3 6.4
2018-Jun-15 09:30N 32°48' W 117°25'4 6.5
2018-Jun-15 08:58N 32°50' W 117°28'3 6.6
2018-Jun-15 08:30N 32°53' W 117°30'3 6.7
2018-Jun-15 08:00N 32°56' W 117°32'3 6.8
2018-Jun-15 07:30N 32°58' W 117°35'3 6.6
2018-Jun-15 07:00N 33°01' W 117°37'3 6.8
2018-Jun-15 06:30N 33°04' W 117°40'3 6.8
2018-Jun-15 06:00N 33°07' W 117°42'3 6.8
2018-Jun-15 05:30N 33°09' W 117°44'24 6.8
2018-Jun-15 01:55N 33°29' W 118°02'3 6.9
2018-Jun-15 01:30N 33°31' W 118°03'3 7.0
2018-Jun-15 01:00N 33°34' W 118°06'4 7.2
2018-Jun-15 00:30N 33°37' W 118°08'4 7.2
2018-Jun-15 00:00N 33°40' W 118°11'4 7.2
2018-Jun-14 23:30N 33°42' W 118°14'2 4.8
2018-Jun-14 23:00N 33°44' W 118°16'0 0.3
2018-Jun-14 22:30N 33°44' W 118°17'0 0.2
2018-Jun-14 22:00N 33°44' W 118°16'0 0.1
2018-Jun-14 21:30N 33°44' W 118°17'0 0.0
2018-Jun-14 21:00N 33°44' W 118°17'0 0.0
2018-Jun-14 20:30N 33°44' W 118°17'0 0.0
2018-Jun-14 20:00N 33°44' W 118°17'0 0.0
2018-Jun-14 19:30N 33°44' W 118°17'0 0.0
2018-Jun-14 19:00N 33°44' W 118°17'0 0.0
2018-Jun-14 18:30N 33°44' W 118°17'0 0.0
2018-Jun-14 18:00N 33°44' W 118°17'1 2.7
2018-Jun-14 17:30N 33°43' W 118°15'3 6.8
2018-Jun-14 17:00N 33°45' W 118°12'2 3.4
2018-Jun-14 16:29N 33°44' W 118°13'3 5.3
2018-Jun-14 16:00N 33°44' W 118°17'0 0.1
2018-Jun-14 15:30N 33°44' W 118°16'0 0.1
2018-Jun-14 15:00N 33°44' W 118°17'0 0.0
2018-Jun-14 14:30N 33°44' W 118°17'0 0.0
2018-Jun-14 14:00N 33°44' W 118°17'  
Track history (hours):
 
Tides and Currents Weather Stations Pressure Air Temp Water Temp Dewpoint Dewpoint Depression Visibility Wind Speed Wind Dir Waves Ship Positions

Robyn J

Owner: JANKOVICH, TOM J, SAN PEDRO, CA. More information available from US FCC via Universal Licensing System and Coast Guard Vessel Documentation Center.

Last reported at 2018-Jun-24 14:00 UTC. Time now 2018-Jun-24 14:12 UTC.
Position N 33°44' W 118°17'.

Length 36 m; draft 3 m.

Type: Tow > 200 m length. MMSI: 367006770.

Date/timePositionNaut miles runAvg speedWind from/ knotsBaromVisibWave heightAir tempDewpointWater temp
2018-Jun-24 14:00N 33°44' W 118°17'0 0.0
2018-Jun-24 13:30N 33°44' W 118°17'0 0.0
2018-Jun-24 13:00N 33°44' W 118°17'0 0.0
2018-Jun-24 12:30N 33°44' W 118°17'0 0.0
2018-Jun-24 12:00N 33°44' W 118°17'0 0.0
2018-Jun-24 11:30N 33°44' W 118°17'0 0.0
2018-Jun-24 11:00N 33°44' W 118°17'0 0.0
2018-Jun-24 10:30N 33°44' W 118°17'0 0.0
2018-Jun-24 10:00N 33°44' W 118°17'0 0.0
2018-Jun-24 09:30N 33°44' W 118°17'0 0.0
2018-Jun-24 09:00N 33°44' W 118°17'0 0.0
2018-Jun-24 08:30N 33°44' W 118°17'0 0.0
2018-Jun-24 08:00N 33°44' W 118°17'0 0.0
2018-Jun-24 07:30N 33°44' W 118°17'0 0.0
2018-Jun-24 07:00N 33°44' W 118°17'0 0.0
2018-Jun-24 06:29N 33°44' W 118°17'0 0.0
2018-Jun-24 06:00N 33°44' W 118°17'0 0.0
2018-Jun-24 05:30N 33°44' W 118°17'0 0.0
2018-Jun-24 05:00N 33°44' W 118°17'0 0.2
2018-Jun-24 04:30N 33°44' W 118°16'2 3.2
2018-Jun-24 04:00N 33°45' W 118°16'0 0.0
2018-Jun-24 03:30N 33°45' W 118°16'0 0.0
2018-Jun-24 03:00N 33°45' W 118°16'0 0.0
2018-Jun-24 02:30N 33°45' W 118°16'0 0.0
2018-Jun-24 02:00N 33°45' W 118°16'0 0.0
2018-Jun-24 01:30N 33°45' W 118°16'0 0.0
2018-Jun-24 01:00N 33°45' W 118°16'0 0.0
2018-Jun-24 00:30N 33°45' W 118°16'0 0.0
2018-Jun-24 00:00N 33°45' W 118°16'2 3.3
2018-Jun-23 23:30N 33°44' W 118°16'2 3.4
2018-Jun-23 23:00N 33°43' W 118°15'2 3.9
2018-Jun-23 22:30N 33°44' W 118°13'0 0.0
2018-Jun-23 22:00N 33°44' W 118°13'0 0.0
2018-Jun-23 21:30N 33°44' W 118°13'0 0.0
2018-Jun-23 21:00N 33°44' W 118°13'0 0.0
2018-Jun-23 20:30N 33°44' W 118°13'0 0.0
2018-Jun-23 20:00N 33°44' W 118°13'0 0.0
2018-Jun-23 19:30N 33°44' W 118°13'0 0.0
2018-Jun-23 19:00N 33°44' W 118°13'2 3.3
2018-Jun-23 18:30N 33°44' W 118°11'1 2.5
2018-Jun-23 18:00N 33°45' W 118°11'0 0.1
2018-Jun-23 17:30N 33°45' W 118°11'0 0.1
2018-Jun-23 17:00N 33°45' W 118°11'0 0.0
2018-Jun-23 16:30N 33°45' W 118°11'0 0.0
2018-Jun-23 16:00N 33°45' W 118°11'0 0.0
2018-Jun-23 15:30N 33°45' W 118°11'0 0.0
2018-Jun-23 15:00N 33°45' W 118°11'0 0.0
2018-Jun-23 14:30N 33°45' W 118°11'0 0.4
2018-Jun-23 13:56N 33°45' W 118°11'1 1.4
2018-Jun-23 13:30N 33°44' W 118°11'3 5.1
2018-Jun-23 13:00N 33°43' W 118°13'3 5.0
2018-Jun-23 12:30N 33°44' W 118°17'0 0.0
2018-Jun-23 12:00N 33°44' W 118°17'0 0.0
2018-Jun-23 11:30N 33°44' W 118°17'0 0.0
2018-Jun-23 11:00N 33°44' W 118°17'0 0.0
2018-Jun-23 10:30N 33°44' W 118°17'0 0.0
2018-Jun-23 10:00N 33°44' W 118°17'0 0.0
2018-Jun-23 09:30N 33°44' W 118°17'0 0.0
2018-Jun-23 09:00N 33°44' W 118°17'0 0.0
2018-Jun-23 08:29N 33°44' W 118°17'0 0.0
2018-Jun-23 08:00N 33°44' W 118°17'0 0.0
2018-Jun-23 07:30N 33°44' W 118°17'0 0.0
2018-Jun-23 07:00N 33°44' W 118°17'0 0.0
2018-Jun-23 06:27N 33°44' W 118°17'0 0.0
2018-Jun-23 06:00N 33°44' W 118°17'0 0.0
2018-Jun-23 05:30N 33°44' W 118°17'0 0.0
2018-Jun-23 05:00N 33°44' W 118°17'0 0.0
2018-Jun-23 04:30N 33°44' W 118°17'0 0.0
2018-Jun-23 03:59N 33°44' W 118°17'0 0.0
2018-Jun-23 03:30N 33°44' W 118°17'0 0.0
2018-Jun-23 03:00N 33°44' W 118°17'0 0.0
2018-Jun-23 02:30N 33°44' W 118°17'0 0.0
2018-Jun-23 01:59N 33°44' W 118°17'0 0.0
2018-Jun-23 01:27N 33°44' W 118°17'0 0.0
2018-Jun-23 01:00N 33°44' W 118°17'2 4.8
2018-Jun-23 00:30N 33°43' W 118°14'1 2.4
2018-Jun-23 00:00N 33°44' W 118°13'0 0.1
2018-Jun-22 23:30N 33°44' W 118°13'0 0.1
2018-Jun-22 23:00N 33°44' W 118°13'0 0.0
2018-Jun-22 22:30N 33°44' W 118°13'0 0.1
2018-Jun-22 22:00N 33°44' W 118°13'0 0.1
2018-Jun-22 21:30N 33°44' W 118°13'0 0.1
2018-Jun-22 21:00N 33°44' W 118°13'0 0.0
2018-Jun-22 20:30N 33°44' W 118°13'0 0.2
2018-Jun-22 20:00N 33°44' W 118°13'0 0.7
2018-Jun-22 19:29N 33°44' W 118°13'2 5.1
2018-Jun-22 19:00N 33°43' W 118°16'0 0.9
2018-Jun-22 18:30N 33°44' W 118°17'0 0.0
2018-Jun-22 18:00N 33°44' W 118°17'0 0.1
2018-Jun-22 17:30N 33°44' W 118°17'0 0.0
2018-Jun-22 17:00N 33°44' W 118°17'0 0.0
2018-Jun-22 16:30N 33°44' W 118°17'0 0.0
2018-Jun-22 16:00N 33°44' W 118°17'0 0.0
2018-Jun-22 15:30N 33°44' W 118°17'0 0.0
2018-Jun-22 15:00N 33°44' W 118°17'0 0.0
2018-Jun-22 14:30N 33°44' W 118°17'0 0.0
2018-Jun-22 14:00N 33°44' W 118°17'0 0.0
2018-Jun-22 13:30N 33°44' W 118°17'0 0.0
2018-Jun-22 13:00N 33°44' W 118°17'0 0.0
2018-Jun-22 12:30N 33°44' W 118°17'0 0.0
2018-Jun-22 12:00N 33°44' W 118°17'0 0.0
2018-Jun-22 11:29N 33°44' W 118°17'0 0.0
2018-Jun-22 11:00N 33°44' W 118°17'0 0.0
2018-Jun-22 10:30N 33°44' W 118°17'0 0.0
2018-Jun-22 10:00N 33°44' W 118°17'0 0.0
2018-Jun-22 09:30N 33°44' W 118°17'0 0.0
2018-Jun-22 08:59N 33°44' W 118°17'0 0.0
2018-Jun-22 08:30N 33°44' W 118°17'0 0.0
2018-Jun-22 08:00N 33°44' W 118°17'0 0.0
2018-Jun-22 07:30N 33°44' W 118°17'0 0.0
2018-Jun-22 07:00N 33°44' W 118°17'0 0.0
2018-Jun-22 06:29N 33°44' W 118°17'0 0.0
2018-Jun-22 06:00N 33°44' W 118°17'0 0.0
2018-Jun-22 05:30N 33°44' W 118°17'0 0.0
2018-Jun-22 05:00N 33°44' W 118°17'0 0.0
2018-Jun-22 04:29N 33°44' W 118°17'0 0.0
2018-Jun-22 04:00N 33°44' W 118°17'0 0.0
2018-Jun-22 03:30N 33°44' W 118°17'0 0.0
2018-Jun-22 03:00N 33°44' W 118°17'0 0.0
2018-Jun-22 02:30N 33°44' W 118°17'0 0.0
2018-Jun-22 02:00N 33°44' W 118°17'0 0.0
2018-Jun-22 01:30N 33°44' W 118°17'0 0.0
2018-Jun-22 01:00N 33°44' W 118°17'0 0.0
2018-Jun-22 00:30N 33°44' W 118°17'0 0.0
2018-Jun-22 00:00N 33°44' W 118°17'0 0.0
2018-Jun-21 23:30N 33°44' W 118°17'0 0.0
2018-Jun-21 23:00N 33°44' W 118°17'2 3.8
2018-Jun-21 22:30N 33°43' W 118°14'1 2.8
2018-Jun-21 22:00N 33°44' W 118°13'0 0.0
2018-Jun-21 21:30N 33°44' W 118°13'0 0.0
2018-Jun-21 21:00N 33°44' W 118°13'0 0.1
2018-Jun-21 20:30N 33°44' W 118°13'0 0.1
2018-Jun-21 20:00N 33°44' W 118°13'0 0.1
2018-Jun-21 19:30N 33°44' W 118°13'1 2.6
2018-Jun-21 19:00N 33°43' W 118°14'2 3.8
2018-Jun-21 18:30N 33°44' W 118°17'0 0.1
2018-Jun-21 18:00N 33°44' W 118°17'0 0.0
2018-Jun-21 17:30N 33°44' W 118°17'0 0.0
2018-Jun-21 17:00N 33°44' W 118°17'0 0.0
2018-Jun-21 16:30N 33°44' W 118°17'0 0.0
2018-Jun-21 16:00N 33°44' W 118°17'0 0.0
2018-Jun-21 15:30N 33°44' W 118°17'0 0.0
2018-Jun-21 15:00N 33°44' W 118°17'0 0.0
2018-Jun-21 14:30N 33°44' W 118°17'0 0.0
2018-Jun-21 14:00N 33°44' W 118°17'0 0.0
2018-Jun-21 13:30N 33°44' W 118°17'0 0.0
2018-Jun-21 13:00N 33°44' W 118°17'0 0.0
2018-Jun-21 12:30N 33°44' W 118°17'0 0.0
2018-Jun-21 12:00N 33°44' W 118°17'0 0.0
2018-Jun-21 11:30N 33°44' W 118°17'0 0.0
2018-Jun-21 11:00N 33°44' W 118°17'0 0.0
2018-Jun-21 10:30N 33°44' W 118°17'0 0.0
2018-Jun-21 09:59N 33°44' W 118°17'0 0.0
2018-Jun-21 09:30N 33°44' W 118°17'0 0.0
2018-Jun-21 09:00N 33°44' W 118°17'0 0.0
2018-Jun-21 08:28N 33°44' W 118°17'0 0.0
2018-Jun-21 08:00N 33°44' W 118°17'0 0.0
2018-Jun-21 07:28N 33°44' W 118°17'0 0.0
2018-Jun-21 07:00N 33°44' W 118°17'0 0.0
2018-Jun-21 06:30N 33°44' W 118°17'0 0.0
2018-Jun-21 05:59N 33°44' W 118°17'0 0.0
2018-Jun-21 05:30N 33°44' W 118°17'0 0.0
2018-Jun-21 05:00N 33°44' W 118°17'0 0.0
2018-Jun-21 04:30N 33°44' W 118°17'0 0.0
2018-Jun-21 04:00N 33°44' W 118°17'0 0.0
2018-Jun-21 03:30N 33°44' W 118°17'0 0.0
2018-Jun-21 03:00N 33°44' W 118°17'0 0.0
2018-Jun-21 02:28N 33°44' W 118°17'0 0.0
2018-Jun-21 02:00N 33°44' W 118°17'0 0.0
2018-Jun-21 01:30N 33°44' W 118°17'0 0.0
2018-Jun-21 01:00N 33°44' W 118°17'0 0.0
2018-Jun-21 00:30N 33°44' W 118°17'0 0.0
2018-Jun-21 00:00N 33°44' W 118°17'0 0.0
2018-Jun-20 23:30N 33°44' W 118°17'0 0.1
2018-Jun-20 23:00N 33°44' W 118°16'0 0.0
2018-Jun-20 22:30N 33°44' W 118°16'0 0.0
2018-Jun-20 22:00N 33°44' W 118°16'0 0.0
2018-Jun-20 21:30N 33°44' W 118°16'0 0.0
2018-Jun-20 21:00N 33°44' W 118°16'0 0.0
2018-Jun-20 20:30N 33°44' W 118°16'0 0.1
2018-Jun-20 20:00N 33°44' W 118°17'0 0.0
2018-Jun-20 19:30N 33°44' W 118°17'0 0.0
2018-Jun-20 19:00N 33°44' W 118°17'0 0.0
2018-Jun-20 18:30N 33°44' W 118°17'0 0.0
2018-Jun-20 18:00N 33°44' W 118°17'0 0.0
2018-Jun-20 17:30N 33°44' W 118°17'0 0.0
2018-Jun-20 17:00N 33°44' W 118°17'0 0.0
2018-Jun-20 16:29N 33°44' W 118°17'0 0.0
2018-Jun-20 15:59N 33°44' W 118°17'0 0.0
2018-Jun-20 15:30N 33°44' W 118°17'0 0.5
2018-Jun-20 15:00N 33°44' W 118°17'1 2.7
2018-Jun-20 14:30N 33°45' W 118°16'0 0.0
2018-Jun-20 13:59N 33°45' W 118°16'0 0.1
2018-Jun-20 13:30N 33°45' W 118°16'0 0.1
2018-Jun-20 13:00N 33°45' W 118°16'0 0.0
2018-Jun-20 12:30N 33°45' W 118°16'0 0.0
2018-Jun-20 12:00N 33°45' W 118°16'0 0.0
2018-Jun-20 11:30N 33°45' W 118°16'0 0.0
2018-Jun-20 11:00N 33°45' W 118°16'0 0.0
2018-Jun-20 10:30N 33°45' W 118°16'0 0.0
2018-Jun-20 10:00N 33°45' W 118°16'0 0.1
2018-Jun-20 09:30N 33°45' W 118°16'0 0.0
2018-Jun-20 09:00N 33°45' W 118°16'2 3.0
2018-Jun-20 08:29N 33°44' W 118°17'0 0.0
2018-Jun-20 08:00N 33°44' W 118°17'0 0.0
2018-Jun-20 07:28N 33°44' W 118°17'0 0.0
2018-Jun-20 07:00N 33°44' W 118°17'0 0.0
2018-Jun-20 06:30N 33°44' W 118°17'0 0.0
2018-Jun-20 06:00N 33°44' W 118°17'1 1.9
2018-Jun-20 05:30N 33°43' W 118°16'3 5.1
2018-Jun-20 05:00N 33°41' W 118°14'4 7.8
2018-Jun-20 04:30N 33°37' W 118°15'4 7.5
2018-Jun-20 03:59N 33°33' W 118°15'1 0.1
2018-Jun-19 06:01N 33°32' W 118°15'0 7.3
2018-Jun-19 06:00N 33°32' W 118°15'4 7.4
2018-Jun-19 05:30N 33°36' W 118°15'4 7.5
2018-Jun-19 05:00N 33°39' W 118°15'3 6.8
2018-Jun-19 04:30N 33°43' W 118°15'1 2.5
2018-Jun-19 04:00N 33°44' W 118°17'0 0.0
2018-Jun-19 03:30N 33°44' W 118°17'0 0.0
2018-Jun-19 03:00N 33°44' W 118°17'0 0.0
2018-Jun-19 02:30N 33°44' W 118°17'0 0.0
2018-Jun-19 02:00N 33°44' W 118°17'0 0.0
2018-Jun-19 01:30N 33°44' W 118°17'0 0.0
2018-Jun-19 01:00N 33°44' W 118°17'0 0.0
2018-Jun-19 00:30N 33°44' W 118°17'0 0.0
2018-Jun-19 00:00N 33°44' W 118°17'0 0.0
2018-Jun-18 23:30N 33°44' W 118°17'0 0.0
2018-Jun-18 23:00N 33°44' W 118°17'0 0.0
2018-Jun-18 22:30N 33°44' W 118°17'0 0.0
2018-Jun-18 22:00N 33°44' W 118°17'0 0.0
2018-Jun-18 21:30N 33°44' W 118°17'0 0.0
2018-Jun-18 21:00N 33°44' W 118°17'0 0.0
2018-Jun-18 20:30N 33°44' W 118°17'0 0.0
2018-Jun-18 20:00N 33°44' W 118°17'0 0.0
2018-Jun-18 19:30N 33°44' W 118°17'0 0.0
2018-Jun-18 19:00N 33°44' W 118°17'0 0.0
2018-Jun-18 18:30N 33°44' W 118°17'0 0.0
2018-Jun-18 18:00N 33°44' W 118°17'0 0.0
2018-Jun-18 17:30N 33°44' W 118°17'0 0.0
2018-Jun-18 17:00N 33°44' W 118°17'0 0.0
2018-Jun-18 16:30N 33°44' W 118°17'0 0.0
2018-Jun-18 16:00N 33°44' W 118°17'0 0.0
2018-Jun-18 15:29N 33°44' W 118°17'0 0.0
2018-Jun-18 15:00N 33°44' W 118°17'0 0.0
2018-Jun-18 14:30N 33°44' W 118°17'0 0.0
2018-Jun-18 14:00N 33°44' W 118°17'0 0.0
2018-Jun-18 13:30N 33°44' W 118°17'0 0.0
2018-Jun-18 13:00N 33°44' W 118°17'0 0.0
2018-Jun-18 12:30N 33°44' W 118°17'0 0.0
2018-Jun-18 12:00N 33°44' W 118°17'0 0.0
2018-Jun-18 11:30N 33°44' W 118°17'0 0.0
2018-Jun-18 10:59N 33°44' W 118°17'0 0.0
2018-Jun-18 10:30N 33°44' W 118°17'2 3.2
2018-Jun-18 10:00N 33°43' W 118°15'4 7.1
2018-Jun-18 09:30N 33°40' W 118°12'4 7.5
2018-Jun-18 09:00N 33°37' W 118°09'4 7.6
2018-Jun-18 08:30N 33°34' W 118°06'27 7.7
2018-Jun-18 04:58N 33°13' W 117°46'4 7.5
2018-Jun-18 04:30N 33°10' W 117°44'4 7.4
2018-Jun-18 04:00N 33°07' W 117°41'4 7.3
2018-Jun-18 03:30N 33°04' W 117°39'4 7.3
2018-Jun-18 03:00N 33°01' W 117°36'4 7.3
2018-Jun-18 02:30N 32°58' W 117°34'4 7.2
2018-Jun-18 02:00N 32°55' W 117°31'4 7.2
2018-Jun-18 01:30N 32°52' W 117°29'4 7.1
2018-Jun-18 01:00N 32°49' W 117°26'4 7.3
2018-Jun-18 00:30N 32°47' W 117°23'  
2018-Jun-15 10:37N 32°42' W 117°20'1 6.3
2018-Jun-15 10:30N 32°43' W 117°21'3 6.2
2018-Jun-15 10:00N 32°45' W 117°23'3 6.4
2018-Jun-15 09:30N 32°48' W 117°25'4 6.5
2018-Jun-15 08:58N 32°50' W 117°28'3 6.6
2018-Jun-15 08:30N 32°53' W 117°30'3 6.7
2018-Jun-15 08:00N 32°56' W 117°32'3 6.8
2018-Jun-15 07:30N 32°58' W 117°35'3 6.6
2018-Jun-15 07:00N 33°01' W 117°37'3 6.8
2018-Jun-15 06:30N 33°04' W 117°40'3 6.8
2018-Jun-15 06:00N 33°07' W 117°42'3 6.8
2018-Jun-15 05:30N 33°09' W 117°44'24 6.8
2018-Jun-15 01:55N 33°29' W 118°02'3 6.9
2018-Jun-15 01:30N 33°31' W 118°03'3 7.0
2018-Jun-15 01:00N 33°34' W 118°06'4 7.2
2018-Jun-15 00:30N 33°37' W 118°08'4 7.2
2018-Jun-15 00:00N 33°40' W 118°11'4 7.2
2018-Jun-14 23:30N 33°42' W 118°14'2 4.8
2018-Jun-14 23:00N 33°44' W 118°16'0 0.3
2018-Jun-14 22:30N 33°44' W 118°17'0 0.2
2018-Jun-14 22:00N 33°44' W 118°16'0 0.1
2018-Jun-14 21:30N 33°44' W 118°17'0 0.0
2018-Jun-14 21:00N 33°44' W 118°17'0 0.0
2018-Jun-14 20:30N 33°44' W 118°17'0 0.0
2018-Jun-14 20:00N 33°44' W 118°17'0 0.0
2018-Jun-14 19:30N 33°44' W 118°17'0 0.0
2018-Jun-14 19:00N 33°44' W 118°17'0 0.0
2018-Jun-14 18:30N 33°44' W 118°17'0 0.0
2018-Jun-14 18:00N 33°44' W 118°17'1 2.7
2018-Jun-14 17:30N 33°43' W 118°15'3 6.8
2018-Jun-14 17:00N 33°45' W 118°12'2 3.4
2018-Jun-14 16:29N 33°44' W 118°13'3 5.3
2018-Jun-14 16:00N 33°44' W 118°17'0 0.1
2018-Jun-14 15:30N 33°44' W 118°16'0 0.1
2018-Jun-14 15:00N 33°44' W 118°17'0 0.0
2018-Jun-14 14:30N 33°44' W 118°17'0 0.0
2018-Jun-14 14:00N 33°44' W 118°17'  

Dump ship's entire track history